Hlavní strana
METAR-TAF:

METAR-TAF

Letiště :

Letiště Peking

Peking, Čína

zeměpisná šířka: 39-56N, zeměpisná délka: 116-17E, výška: 55 m

Aktuální stav počasí

Zpráva byla vytvořena před 18 minutami, v 23:30 UTC
Bezvětří
Teplota -11°C
Vlhkost vzduchu 66%
Tlak 1038 hPa
Viditelnost 10 km a více
Žádná oblačnost pod 1500 m, nevyskytují se cumulonimby.

METAR: ZBAA 132330Z 00000MPS CAVOK M11/M16 Q1038 NOSIG

Čas: 07:48 (23:48 UTC)

Předpověď počasí

Zpráva byla vytvořena před 2 hodinami a 28 minutami, v 21:20 UTC
Předpověď platná od 14 v 00 UTC do 14 v 24 UTC
Jihojihovýchodní vítr 8 kt
Viditelnost: 6000 m

TAF: ZBAA 132120Z 1400/1424 16004MPS 6000 NSC TX03/1407Z TNM10/21Z

Stav a předpovědi počasí z více než 4 000 letišť (zprávy METAR a TAF).

Červené a žluté tečky na mapě představují dostupné meteorologické stanice.

Když kurzor umístíte na tečku, zobrazí se název stanice.

Pak kliknutím zobrazíte stav a předpověď počasí.

Chcete-li změnit mapu, kliknutím na zelené tlačítko se znaménkem +mapu přiblížíte, kliknutím na zelené tlačítko se znaménkem – mapu oddálíte a kliknutím na zelené šipky přejdete na sousední mapy.


METAR-TAF: